Time;durP1;ratioP1;P1;durP2;ratioP2;P2;SDS_P1;SDS_P2;PMS_P1;PMS_P2;Temp;Humidity;BMP_temperature;BMP_pressure;BME280_temperature;BME280_humidity;BME280_pressure;Samples;Min_cycle;Max_cycle;Signal;HPM_P1;HPM_P2
2023/08/23 00:01:36;;;;;;;4.83;1.80;;;17.50;99.90;;;;;;5035205;28;20195;-70
2023/08/23 00:04:02;;;;;;;1.90;1.57;;;17.50;99.90;;;;;;5034926;28;20175;-71
2023/08/23 00:06:27;;;;;;;3.50;1.60;;;17.50;99.90;;;;;;5034923;28;20206;-71
2023/08/23 00:08:53;;;;;;;3.57;1.60;;;17.40;99.90;;;;;;5035240;28;20176;-70
2023/08/23 00:11:18;;;;;;;6.20;1.80;;;17.40;99.90;;;;;;5035122;28;20179;-70
2023/08/23 00:13:44;;;;;;;2.70;1.57;;;17.40;99.90;;;;;;5035030;28;20214;-71
2023/08/23 00:16:09;;;;;;;3.93;1.73;;;17.40;99.90;;;;;;5034795;28;20194;-71
2023/08/23 00:18:35;;;;;;;1.40;1.00;;;17.30;99.90;;;;;;5034928;28;20199;-71
2023/08/23 00:21:00;;;;;;;1.70;1.50;;;17.30;99.90;;;;;;5034824;28;20250;-71
2023/08/23 00:23:26;;;;;;;2.10;1.90;;;17.30;99.90;;;;;;5034828;28;20196;-71
2023/08/23 00:25:51;;;;;;;2.20;1.67;;;17.30;99.90;;;;;;5034513;28;20254;-71
2023/08/23 00:28:19;;;;;;;2.87;1.80;;;17.20;99.90;;;;;;5034857;28;20164;-71
2023/08/23 00:30:52;;;;;;;3.40;1.80;;;17.20;99.90;;;;;;5034707;28;20174;-72
2023/08/23 00:33:18;;;;;;;3.23;1.33;;;17.20;99.90;;;;;;5034634;28;20490;-71
2023/08/23 00:35:43;;;;;;;2.03;1.83;;;17.20;99.90;;;;;;5039646;28;20452;-71
2023/08/23 00:38:09;;;;;;;1.90;1.63;;;17.10;99.90;;;;;;5054705;28;20624;-71
2023/08/23 00:40:35;;;;;;;3.70;1.67;;;17.10;99.90;;;;;;5049933;28;20226;-72
2023/08/23 00:43:00;;;;;;;2.77;2.07;;;17.10;99.90;;;;;;5047070;28;20195;-71
2023/08/23 00:45:28;;;;;;;3.00;1.97;;;17.10;99.90;;;;;;5054055;28;20175;-71
2023/08/23 00:47:53;;;;;;;2.10;1.60;;;17.00;99.90;;;;;;5053707;28;20254;-71
2023/08/23 00:50:20;;;;;;;3.70;1.70;;;17.00;99.90;;;;;;5054382;28;20444;-72
2023/08/23 00:52:46;;;;;;;3.10;1.87;;;17.00;99.90;;;;;;5052980;28;20215;-71
2023/08/23 00:55:12;;;;;;;3.30;2.00;;;17.00;99.90;;;;;;5049278;28;20442;-71
2023/08/23 00:57:37;;;;;;;2.43;1.67;;;16.90;99.90;;;;;;5046562;28;20195;-71
2023/08/23 01:00:04;;;;;;;2.00;1.90;;;16.90;99.90;;;;;;5053527;28;20234;-71
2023/08/23 01:02:29;;;;;;;2.03;1.83;;;16.90;99.90;;;;;;5054197;28;20691;-71
2023/08/23 01:04:55;;;;;;;1.93;1.57;;;16.90;99.90;;;;;;5053742;28;20408;-71
2023/08/23 01:07:53;;;;;;;2.43;2.10;;;16.80;99.90;;;;;;5053898;28;20179;-71
2023/08/23 01:10:43;;;;;;;2.37;1.97;;;16.80;99.90;;;;;;5036914;28;20237;-71
2023/08/23 01:13:27;;;;;;;3.20;2.30;;;16.80;99.90;;;;;;5051181;28;20479;-72
2023/08/23 01:15:56;;;;;;;2.87;2.20;;;16.70;99.90;;;;;;5033499;28;20413;-71
2023/08/23 01:18:23;;;;;;;2.70;2.47;;;16.70;99.90;;;;;;5034035;28;20437;-71
2023/08/23 01:20:51;;;;;;;1.87;1.77;;;16.70;99.90;;;;;;5033866;28;20442;-71
2023/08/23 01:23:17;;;;;;;2.33;2.10;;;16.70;99.90;;;;;;5033894;28;20983;-71
2023/08/23 01:25:50;;;;;;;2.20;1.90;;;16.60;99.90;;;;;;5033500;28;20461;-71
2023/08/23 01:28:17;;;;;;;2.33;1.80;;;16.60;99.90;;;;;;5033557;28;20453;-71
2023/08/23 01:30:43;;;;;;;2.40;2.20;;;16.60;99.90;;;;;;5046712;28;20414;-71
2023/08/23 01:33:32;;;;;;;2.70;2.00;;;16.60;99.90;;;;;;5053217;28;20448;-71
2023/08/23 01:36:07;;;;;;;3.40;1.67;;;16.60;99.90;;;;;;5053189;28;20218;-71
2023/08/23 01:38:34;;;;;;;2.60;1.90;;;16.50;99.90;;;;;;5053549;28;20397;-71
2023/08/23 01:41:00;;;;;;;2.60;2.17;;;16.50;99.90;;;;;;5048499;28;20440;-71
2023/08/23 01:43:26;;;;;;;3.17;1.70;;;16.50;99.90;;;;;;5050797;28;20442;-71
2023/08/23 01:45:52;;;;;;;3.00;2.00;;;16.50;99.90;;;;;;5052717;28;20405;-72
2023/08/23 01:48:17;;;;;;;1.67;1.57;;;16.50;99.90;;;;;;5053265;28;20185;-71
2023/08/23 01:50:43;;;;;;;5.53;1.70;;;16.40;99.90;;;;;;5053265;28;20173;-71
2023/08/23 01:53:09;;;;;;;3.53;1.87;;;16.50;99.90;;;;;;5053019;28;20202;-71
2023/08/23 01:55:34;;;;;;;2.30;2.00;;;16.40;99.90;;;;;;5052946;28;20433;-72
2023/08/23 01:58:00;;;;;;;2.27;2.10;;;16.40;99.90;;;;;;5053064;28;20167;-71
2023/08/23 02:00:25;;;;;;;5.10;2.50;;;16.40;99.90;;;;;;5037898;28;20171;-71
2023/08/23 02:02:51;;;;;;;2.03;1.83;;;16.30;99.90;;;;;;5033277;28;20695;-70
2023/08/23 02:05:16;;;;;;;2.03;1.83;;;16.30;99.90;;;;;;5032916;28;20194;-70
2023/08/23 02:07:42;;;;;;;2.37;2.17;;;16.30;99.90;;;;;;5032747;28;20209;-70
2023/08/23 02:10:07;;;;;;;1.80;1.43;;;16.30;99.90;;;;;;5033012;28;20171;-70
2023/08/23 02:12:33;;;;;;;2.90;2.60;;;16.30;99.90;;;;;;5032765;28;20191;-70
2023/08/23 02:14:58;;;;;;;3.83;1.83;;;16.30;99.90;;;;;;5032330;28;20159;-70
2023/08/23 02:17:24;;;;;;;2.33;2.13;;;16.30;99.90;;;;;;5032751;28;20174;-70
2023/08/23 02:19:49;;;;;;;4.57;2.43;;;16.20;99.90;;;;;;5032722;28;20195;-71
2023/08/23 02:22:15;;;;;;;2.70;2.03;;;16.20;99.90;;;;;;5032081;28;20190;-70
2023/08/23 02:24:41;;;;;;;2.40;2.03;;;16.20;99.90;;;;;;5032718;28;20168;-70
2023/08/23 02:27:06;;;;;;;2.60;2.30;;;16.20;99.90;;;;;;5032537;28;20168;-70
2023/08/23 02:29:32;;;;;;;3.00;1.90;;;16.20;99.90;;;;;;5032528;28;20256;-71
2023/08/23 02:31:57;;;;;;;2.50;1.83;;;16.20;99.90;;;;;;5032527;28;20190;-70
2023/08/23 02:34:23;;;;;;;2.80;1.77;;;16.20;99.90;;;;;;5032467;28;20198;-70
2023/08/23 02:36:49;;;;;;;2.77;2.37;;;16.10;99.90;;;;;;5045079;28;20249;-70
2023/08/23 02:39:14;;;;;;;2.07;1.87;;;16.10;99.90;;;;;;5052356;28;20174;-70
2023/08/23 02:41:40;;;;;;;5.17;2.33;;;16.10;99.90;;;;;;5043898;28;20191;-70
2023/08/23 02:44:05;;;;;;;3.07;2.00;;;16.10;99.90;;;;;;5044762;28;20220;-71
2023/08/23 02:46:31;;;;;;;3.23;2.10;;;16.10;99.90;;;;;;5050710;28;20535;-70
2023/08/23 02:48:56;;;;;;;2.97;2.30;;;16.10;99.90;;;;;;5052025;28;20175;-70
2023/08/23 02:51:22;;;;;;;6.77;2.50;;;16.00;99.90;;;;;;5052152;28;20254;-70
2023/08/23 02:53:47;;;;;;;3.90;2.00;;;16.00;99.90;;;;;;5052010;28;20667;-70
2023/08/23 02:56:13;;;;;;;2.03;1.40;;;16.00;99.90;;;;;;5051915;28;20258;-69
2023/08/23 02:58:38;;;;;;;10.00;2.20;;;16.00;99.90;;;;;;5051989;28;20220;-70
2023/08/23 03:01:04;;;;;;;2.13;1.90;;;16.00;99.90;;;;;;5033265;28;20172;-70
2023/08/23 03:03:29;;;;;;;2.30;2.10;;;16.00;99.90;;;;;;5032062;28;20184;-70
2023/08/23 03:05:56;;;;;;;1.90;1.70;;;15.90;99.90;;;;;;5031850;28;20172;-70
2023/08/23 03:08:23;;;;;;;5.53;2.53;;;15.90;99.90;;;;;;5031926;28;20549;-70
2023/08/23 03:10:49;;;;;;;4.00;3.70;;;15.90;99.90;;;;;;5031636;28;20412;-70
2023/08/23 03:13:15;;;;;;;4.00;2.00;;;15.90;99.90;;;;;;5031760;28;20541;-70
2023/08/23 03:15:40;;;;;;;3.40;2.03;;;15.90;99.90;;;;;;5031568;28;20256;-70
2023/08/23 03:18:06;;;;;;;2.40;2.20;;;15.90;99.90;;;;;;5031986;28;20398;-70
2023/08/23 03:20:31;;;;;;;1.97;1.70;;;15.80;99.90;;;;;;5031783;28;20167;-70
2023/08/23 03:22:58;;;;;;;1.80;1.70;;;15.80;99.90;;;;;;5031783;28;20214;-70
2023/08/23 03:25:24;;;;;;;2.37;2.17;;;15.80;99.90;;;;;;5031484;28;20218;-70
2023/08/23 03:27:52;;;;;;;2.20;2.00;;;15.80;99.90;;;;;;5031599;28;20407;-70
2023/08/23 03:30:18;;;;;;;2.87;2.57;;;15.80;99.90;;;;;;5031813;28;20172;-70
2023/08/23 03:32:44;;;;;;;4.43;1.90;;;15.80;99.90;;;;;;5031692;28;20426;-70
2023/08/23 03:35:09;;;;;;;2.20;2.00;;;15.80;99.90;;;;;;5030199;28;20406;-71
2023/08/23 03:37:35;;;;;;;1.97;1.87;;;15.70;99.90;;;;;;5050297;28;20171;-70
2023/08/23 03:40:01;;;;;;;1.90;1.80;;;15.70;99.90;;;;;;5051616;28;20182;-70
2023/08/23 03:42:26;;;;;;;2.20;2.00;;;15.70;99.90;;;;;;5043220;28;20676;-70
2023/08/23 03:44:52;;;;;;;3.13;2.30;;;15.70;99.90;;;;;;5043476;28;20314;-71
2023/08/23 03:47:17;;;;;;;2.30;1.90;;;15.70;99.90;;;;;;5051045;28;20163;-71
2023/08/23 03:49:43;;;;;;;3.13;2.23;;;15.70;99.90;;;;;;5051483;28;20210;-70
2023/08/23 03:52:08;;;;;;;2.30;1.73;;;15.60;99.90;;;;;;5051281;28;20191;-70
2023/08/23 03:54:35;;;;;;;6.67;1.90;;;15.60;99.90;;;;;;5051516;28;20202;-70
2023/08/23 03:57:00;;;;;;;2.20;1.93;;;15.60;99.90;;;;;;5051059;28;20159;-70
2023/08/23 03:59:26;;;;;;;2.17;1.90;;;15.60;99.90;;;;;;5046869;28;20768;-70
2023/08/23 04:01:51;;;;;;;1.73;1.63;;;15.60;99.90;;;;;;5031451;28;20184;-70
2023/08/23 04:04:17;;;;;;;1.97;1.87;;;15.60;99.90;;;;;;5031529;28;20175;-70
2023/08/23 04:06:42;;;;;;;1.90;1.70;;;15.60;99.90;;;;;;5031066;28;20179;-70
2023/08/23 04:09:08;;;;;;;2.23;2.03;;;15.50;99.90;;;;;;5031504;28;20173;-70
2023/08/23 04:11:34;;;;;;;2.30;2.10;;;15.50;99.90;;;;;;5031608;28;20191;-70
2023/08/23 04:13:59;;;;;;;3.03;2.40;;;15.50;99.90;;;;;;5031490;28;20802;-70
2023/08/23 04:16:25;;;;;;;2.97;1.80;;;15.50;99.90;;;;;;5031266;28;20174;-70
2023/08/23 04:18:50;;;;;;;2.37;1.87;;;15.50;99.90;;;;;;5031313;28;20164;-70
2023/08/23 04:21:16;;;;;;;2.43;2.13;;;15.50;99.90;;;;;;5031146;28;20175;-70
2023/08/23 04:23:41;;;;;;;6.67;2.23;;;15.50;99.90;;;;;;5033869;28;20188;-71
2023/08/23 04:26:07;;;;;;;1.70;1.60;;;15.40;99.90;;;;;;5034515;28;20168;-69
2023/08/23 04:28:33;;;;;;;3.03;2.20;;;15.40;99.90;;;;;;5034739;28;20167;-70
2023/08/23 04:31:01;;;;;;;3.43;2.20;;;15.40;99.90;;;;;;5034854;28;20164;-70
2023/08/23 04:33:27;;;;;;;2.47;2.00;;;15.40;99.90;;;;;;5035242;28;20553;-70
2023/08/23 04:35:52;;;;;;;1.90;1.80;;;15.30;99.90;;;;;;5043297;28;20512;-70
2023/08/23 04:38:18;;;;;;;2.23;2.03;;;15.30;99.90;;;;;;5053101;28;20160;-70
2023/08/23 04:40:43;;;;;;;2.07;1.87;;;15.30;99.90;;;;;;5052584;28;20236;-71
2023/08/23 04:43:09;;;;;;;2.33;2.13;;;15.30;99.90;;;;;;5048238;28;20280;-71
2023/08/23 04:45:38;;;;;;;3.63;2.00;;;15.40;99.90;;;;;;5052194;28;20257;-71
2023/08/23 04:48:05;;;;;;;2.30;2.00;;;15.40;99.90;;;;;;5050066;28;20337;-70
2023/08/23 04:50:33;;;;;;;2.20;2.00;;;15.40;99.90;;;;;;5050435;28;20413;-70
2023/08/23 04:52:58;;;;;;;3.70;2.17;;;15.40;99.90;;;;;;5045871;28;20940;-70
2023/08/23 04:55:24;;;;;;;1.80;1.70;;;15.40;99.90;;;;;;5054046;28;20437;-70
2023/08/23 04:57:49;;;;;;;2.53;2.00;;;15.50;99.90;;;;;;5054264;28;20179;-70
2023/08/23 05:00:15;;;;;;;2.13;1.90;;;15.50;99.90;;;;;;5054296;28;20225;-70
2023/08/23 05:02:41;;;;;;;9.60;2.17;;;15.50;99.90;;;;;;5048225;28;20208;-70
2023/08/23 05:05:06;;;;;;;3.80;2.10;;;15.60;99.90;;;;;;5049077;28;20182;-70
2023/08/23 05:07:34;;;;;;;2.90;2.33;;;15.70;99.90;;;;;;5041949;28;20783;-70
2023/08/23 05:10:00;;;;;;;2.20;2.00;;;15.70;99.90;;;;;;5048145;28;20171;-70
2023/08/23 05:12:26;;;;;;;3.80;2.30;;;15.70;99.90;;;;;;5053761;28;20425;-70
2023/08/23 05:14:51;;;;;;;2.73;2.50;;;15.70;99.90;;;;;;5053460;28;20464;-70
2023/08/23 05:17:17;;;;;;;9.57;3.53;;;15.80;99.90;;;;;;5053585;28;20216;-70
2023/08/23 05:19:42;;;;;;;3.73;2.63;;;15.70;99.90;;;;;;5053873;28;20556;-70
2023/08/23 05:22:10;;;;;;;5.30;3.00;;;15.70;99.90;;;;;;5053754;28;20194;-70
2023/08/23 05:24:35;;;;;;;3.40;3.10;;;15.80;99.90;;;;;;5053727;28;20190;-71
2023/08/23 05:27:01;;;;;;;3.47;3.23;;;15.90;99.90;;;;;;5053480;28;20444;-70
2023/08/23 05:29:26;;;;;;;5.03;2.90;;;16.00;99.90;;;;;;5053805;28;20171;-70
2023/08/23 05:31:52;;;;;;;4.50;3.10;;;16.10;99.90;;;;;;5053615;28;20191;-71
2023/08/23 05:34:17;;;;;;;4.10;3.07;;;16.20;99.90;;;;;;5053197;28;20221;-70
2023/08/23 05:36:43;;;;;;;3.83;3.43;;;16.30;99.90;;;;;;5053323;28;20168;-70
2023/08/23 05:39:10;;;;;;;4.53;3.50;;;16.40;99.90;;;;;;5053398;28;20567;-70
2023/08/23 05:41:35;;;;;;;3.20;2.83;;;16.60;99.90;;;;;;5043373;28;20199;-70
2023/08/23 05:44:01;;;;;;;3.13;2.80;;;16.70;99.90;;;;;;5044997;28;20414;-70
2023/08/23 05:46:26;;;;;;;2.80;2.60;;;16.80;99.90;;;;;;5053045;28;20683;-71
2023/08/23 05:48:52;;;;;;;3.50;3.13;;;17.00;99.90;;;;;;5050477;28;20171;-70
2023/08/23 05:51:17;;;;;;;3.93;2.87;;;17.20;99.90;;;;;;5053185;28;20163;-70
2023/08/23 05:53:43;;;;;;;3.40;2.77;;;17.30;99.90;;;;;;5053089;28;20229;-71
2023/08/23 05:56:08;;;;;;;3.77;3.37;;;17.60;99.90;;;;;;5045403;28;20167;-70
2023/08/23 05:58:34;;;;;;;6.70;3.27;;;17.90;99.90;;;;;;5052981;28;20174;-70
2023/08/23 06:00:59;;;;;;;4.77;3.13;;;18.40;99.90;;;;;;5053073;28;20163;-71
2023/08/23 06:03:25;;;;;;;6.80;4.30;;;18.80;99.90;;;;;;5052985;28;20560;-70
2023/08/23 06:05:57;;;;;;;4.70;3.50;;;19.20;99.90;;;;;;5052635;28;20159;-70
2023/08/23 06:08:23;;;;;;;6.57;3.97;;;19.60;99.90;;;;;;5052832;28;20536;-70
2023/08/23 06:10:49;;;;;;;10.30;3.47;;;20.10;99.90;;;;;;5052822;28;20894;-71
2023/08/23 06:13:15;;;;;;;3.77;3.47;;;20.70;99.90;;;;;;5052733;28;20926;-71
2023/08/23 06:15:40;;;;;;;3.70;3.20;;;21.50;99.90;;;;;;5052565;28;20659;-70
2023/08/23 06:18:06;;;;;;;4.93;3.07;;;22.10;99.90;;;;;;5052740;28;20393;-70
2023/08/23 06:20:31;;;;;;;2.63;2.43;;;22.80;99.90;;;;;;5052683;28;20167;-71
2023/08/23 06:22:57;;;;;;;3.90;2.80;;;23.40;99.90;;;;;;5052508;28;21046;-71
2023/08/23 06:25:23;;;;;;;3.97;2.80;;;24.00;99.90;;;;;;5051740;28;20175;-71
2023/08/23 06:27:49;;;;;;;3.70;3.40;;;24.60;99.90;;;;;;5052562;28;20167;-71
2023/08/23 06:30:15;;;;;;;3.87;3.53;;;25.20;99.90;;;;;;5043826;28;20501;-71
2023/08/23 06:32:46;;;;;;;4.00;3.20;;;25.70;99.90;;;;;;5049806;28;20199;-71
2023/08/23 06:35:13;;;;;;;7.07;3.50;;;26.40;99.90;;;;;;5040374;28;20471;-71
2023/08/23 06:37:40;;;;;;;3.33;3.00;;;27.00;99.90;;;;;;5051681;28;20441;-71
2023/08/23 06:40:06;;;;;;;9.00;4.60;;;27.90;99.90;;;;;;5052350;28;20398;-72
2023/08/23 06:42:31;;;;;;;4.90;4.40;;;28.40;99.90;;;;;;5044789;28;20444;-71
2023/08/23 06:44:57;;;;;;;5.90;5.30;;;28.80;99.90;;;;;;5043231;28;20417;-68
2023/08/23 06:47:22;;;;;;;5.30;4.20;;;29.60;99.90;;;;;;5043616;28;20217;-69
2023/08/23 06:49:48;;;;;;;5.80;5.30;;;29.90;90.00;;;;;;5050380;28;20179;-69
2023/08/23 06:52:13;;;;;;;5.00;4.33;;;30.30;82.40;;;;;;5045856;28;20187;-69
2023/08/23 06:54:39;;;;;;;4.20;3.80;;;31.00;78.00;;;;;;5052064;28;20276;-69
2023/08/23 06:57:04;;;;;;;5.57;3.70;;;31.20;72.60;;;;;;5051958;28;20627;-69
2023/08/23 06:59:30;;;;;;;4.43;4.00;;;31.20;71.00;;;;;;5052079;28;20167;-70
2023/08/23 07:01:55;;;;;;;5.63;5.17;;;30.70;69.20;;;;;;5039849;28;20206;-68
2023/08/23 07:04:21;;;;;;;5.20;4.50;;;30.10;70.40;;;;;;5051821;28;20582;-71
2023/08/23 07:06:47;;;;;;;4.83;3.50;;;29.70;71.20;;;;;;5051467;28;20174;-69
2023/08/23 07:09:12;;;;;;;6.50;4.60;;;30.30;76.60;;;;;;5051182;28;20636;-69
2023/08/23 07:11:38;;;;;;;7.50;5.17;;;31.20;74.60;;;;;;5051626;28;20676;-70
2023/08/23 07:14:04;;;;;;;5.43;4.43;;;32.20;65.80;;;;;;5051693;28;20255;-69
2023/08/23 07:16:29;;;;;;;4.60;4.20;;;33.00;60.40;;;;;;5051490;28;20409;-70
2023/08/23 07:18:55;;;;;;;4.97;4.00;;;33.70;56.40;;;;;;5051903;28;20201;-69
2023/08/23 07:21:20;;;;;;;6.43;3.50;;;34.80;55.50;;;;;;5051673;28;20167;-70
2023/08/23 07:23:46;;;;;;;4.60;3.50;;;35.80;53.70;;;;;;5051845;28;20163;-70
2023/08/23 07:26:11;;;;;;;3.60;3.30;;;36.70;51.40;;;;;;5051508;28;20162;-70
2023/08/23 07:28:37;;;;;;;4.10;3.50;;;37.50;48.70;;;;;;5051834;28;20228;-70
2023/08/23 07:31:03;;;;;;;7.30;3.60;;;38.30;46.30;;;;;;5051743;28;20174;-70
2023/08/23 07:33:28;;;;;;;4.83;4.20;;;38.20;44.00;;;;;;5032741;28;20290;-70
2023/08/23 07:35:59;;;;;;;3.70;3.40;;;37.70;43.10;;;;;;5045580;28;20417;-70
2023/08/23 07:38:25;;;;;;;4.20;3.50;;;36.70;42.90;;;;;;5051492;28;20171;-69
2023/08/23 07:40:55;;;;;;;3.70;3.17;;;35.90;43.80;;;;;;5051501;28;20404;-70
2023/08/23 07:43:21;;;;;;;3.30;2.90;;;35.80;45.00;;;;;;5035036;28;20442;-70
2023/08/23 07:45:51;;;;;;;3.53;3.23;;;36.00;45.50;;;;;;5047725;28;20416;-70
2023/08/23 07:48:17;;;;;;;4.13;3.30;;;35.80;45.50;;;;;;5045797;28;20178;-72
2023/08/23 07:50:42;;;;;;;4.83;3.80;;;35.50;45.60;;;;;;5051436;28;20420;-70
2023/08/23 07:53:08;;;;;;;4.33;4.03;;;35.30;46.20;;;;;;5051309;28;20214;-70
2023/08/23 07:55:33;;;;;;;5.70;3.53;;;34.70;45.40;;;;;;5051319;28;20178;-69
2023/08/23 07:58:00;;;;;;;5.30;4.07;;;34.40;46.70;;;;;;5053061;28;20177;-70
2023/08/23 08:00:26;;;;;;;6.27;3.90;;;33.80;47.50;;;;;;5055320;28;20171;-69
2023/08/23 08:02:51;;;;;;;5.87;4.00;;;33.30;48.20;;;;;;5055144;28;20431;-69
2023/08/23 08:05:16;;;;;;;8.50;4.90;;;32.90;48.70;;;;;;5030111;28;20187;-70
2023/08/23 08:07:42;;;;;;;7.73;5.20;;;32.60;49.10;;;;;;5026838;28;20245;-70
2023/08/23 08:10:08;;;;;;;8.40;4.60;;;31.80;49.80;;;;;;5042244;28;20187;-69
2023/08/23 08:12:33;;;;;;;6.50;4.20;;;31.50;51.30;;;;;;5043162;28;20249;-71
2023/08/23 08:15:05;;;;;;;7.07;4.50;;;31.40;52.80;;;;;;5054855;28;20294;-69
2023/08/23 08:17:31;;;;;;;5.53;5.03;;;31.50;53.80;;;;;;5054966;28;20182;-69
2023/08/23 08:19:56;;;;;;;4.47;4.07;;;32.00;54.60;;;;;;5054996;28;20409;-69
2023/08/23 08:22:22;;;;;;;4.50;4.10;;;32.80;54.60;;;;;;5054851;28;20187;-70
2023/08/23 08:24:47;;;;;;;7.43;5.00;;;33.50;53.50;;;;;;5054890;28;20175;-70
2023/08/23 08:27:13;;;;;;;4.13;3.67;;;33.40;50.60;;;;;;5054685;28;20178;-70
2023/08/23 08:29:38;;;;;;;4.90;3.60;;;33.60;50.80;;;;;;5054923;28;20534;-73
2023/08/23 08:32:04;;;;;;;5.67;3.80;;;34.10;52.30;;;;;;5053502;28;20194;-70
2023/08/23 08:34:30;;;;;;;3.90;3.60;;;34.90;51.50;;;;;;5054718;28;20195;-70
2023/08/23 08:36:55;;;;;;;4.90;3.40;;;36.00;50.10;;;;;;5054439;28;20175;-70
2023/08/23 08:39:21;;;;;;;4.53;4.13;;;37.60;48.50;;;;;;5054741;28;20171;-70
2023/08/23 08:41:46;;;;;;;5.37;3.30;;;39.40;46.70;;;;;;5050766;28;20248;-71
2023/08/23 08:44:12;;;;;;;3.97;3.30;;;41.10;42.90;;;;;;5044533;28;20171;-71
2023/08/23 08:46:39;;;;;;;6.93;3.33;;;42.80;40.00;;;;;;5050530;28;20185;-71
2023/08/23 08:49:05;;;;;;;3.60;3.30;;;44.30;38.50;;;;;;5046771;28;20253;-71
2023/08/23 08:51:35;;;;;;;3.90;3.60;;;45.30;35.80;;;;;;5053967;28;20834;-72
2023/08/23 08:54:01;;;;;;;3.20;2.90;;;46.60;34.80;;;;;;5054343;28;20213;-71
2023/08/23 08:56:28;;;;;;;3.57;3.27;;;47.70;33.30;;;;;;5054095;28;20850;-71
2023/08/23 08:58:54;;;;;;;3.97;3.57;;;48.70;31.80;;;;;;5054349;28;20376;-72
2023/08/23 09:01:21;;;;;;;7.10;4.20;;;49.20;29.40;;;;;;5054061;28;20413;-71
2023/08/23 09:03:47;;;;;;;4.23;3.83;;;49.60;28.30;;;;;;5054176;28;20388;-72
2023/08/23 09:06:14;;;;;;;3.80;3.50;;;50.10;28.20;;;;;;5053714;28;20414;-71
2023/08/23 09:08:39;;;;;;;2.93;2.77;;;50.80;28.30;;;;;;5053660;28;20424;-72
2023/08/23 09:11:05;;;;;;;4.47;3.20;;;51.50;27.60;;;;;;5054083;28;20409;-72
2023/08/23 09:13:30;;;;;;;2.90;2.70;;;51.90;25.90;;;;;;5053818;28;20572;-72
2023/08/23 09:15:58;;;;;;;5.20;3.50;;;52.40;25.30;;;;;;5054056;28;20617;-72
2023/08/23 09:18:23;;;;;;;4.57;3.60;;;52.60;25.00;;;;;;5053931;28;20178;-72
2023/08/23 09:20:49;;;;;;;5.30;3.47;;;51.90;23.80;;;;;;5053863;28;20891;-71
2023/08/23 09:23:15;;;;;;;4.00;2.97;;;51.70;24.30;;;;;;5053867;28;20210;-72
2023/08/23 09:25:40;;;;;;;4.60;4.20;;;52.20;24.80;;;;;;5052291;28;20178;-72
2023/08/23 09:28:14;;;;;;;4.83;3.70;;;51.80;22.50;;;;;;5053769;28;20167;-72
2023/08/23 09:30:39;;;;;;;3.83;3.43;;;52.10;23.30;;;;;;5053801;28;20171;-72
2023/08/23 09:33:05;;;;;;;4.30;3.90;;;52.40;23.00;;;;;;5053534;28;20834;-72
2023/08/23 09:35:30;;;;;;;4.00;3.53;;;52.30;22.40;;;;;;5053323;28;20537;-72
2023/08/23 09:37:56;;;;;;;4.90;3.43;;;51.70;21.90;;;;;;5053553;28;20170;-72
2023/08/23 09:40:23;;;;;;;3.50;3.27;;;52.20;23.00;;;;;;5053499;28;20171;-73
2023/08/23 09:42:50;;;;;;;4.43;4.03;;;52.60;22.50;;;;;;5053313;28;20236;-73
2023/08/23 09:45:18;;;;;;;4.30;4.00;;;51.80;21.80;;;;;;5053095;28;20957;-72
2023/08/23 09:47:55;;;;;;;3.77;3.47;;;52.50;23.20;;;;;;5053419;28;20400;-72
2023/08/23 09:50:23;;;;;;;3.90;3.57;;;53.40;22.80;;;;;;5053403;28;20405;-72
2023/08/23 09:52:52;;;;;;;3.23;2.70;;;54.40;22.40;;;;;;5053131;28;20421;-72
2023/08/23 09:55:18;;;;;;;2.93;2.60;;;54.70;21.60;;;;;;5053031;28;20484;-72
2023/08/23 09:57:44;;;;;;;3.33;3.13;;;55.20;21.90;;;;;;5053183;28;20807;-73
2023/08/23 10:00:10;;;;;;;3.33;3.03;;;55.80;21.00;;;;;;5053131;28;20436;-72
2023/08/23 10:02:37;;;;;;;2.93;2.73;;;55.80;20.60;;;;;;5053023;28;20190;-72
2023/08/23 10:05:04;;;;;;;4.43;2.90;;;55.80;20.60;;;;;;5052805;28;20417;-72
2023/08/23 10:07:33;;;;;;;3.20;3.00;;;56.00;20.60;;;;;;5052875;28;20431;-72
2023/08/23 10:09:58;;;;;;;3.07;2.83;;;56.40;21.30;;;;;;5052871;28;20405;-73
2023/08/23 10:12:25;;;;;;;3.63;3.33;;;55.90;19.90;;;;;;5052847;28;20478;-72
2023/08/23 10:14:53;;;;;;;3.40;3.10;;;55.90;21.00;;;;;;5052632;28;20293;-73
2023/08/23 10:17:21;;;;;;;3.90;3.53;;;56.10;20.90;;;;;;5052668;28;20458;-73
2023/08/23 10:19:47;;;;;;;3.23;3.00;;;56.50;20.40;;;;;;5052197;28;20429;-73
2023/08/23 10:22:14;;;;;;;3.40;3.20;;;57.20;20.30;;;;;;5052427;28;20508;-73
2023/08/23 10:24:40;;;;;;;2.87;2.67;;;56.70;18.90;;;;;;5052586;28;20174;-73
2023/08/23 10:27:07;;;;;;;3.30;3.10;;;56.80;19.90;;;;;;5052618;28;20400;-73
2023/08/23 10:29:34;;;;;;;3.20;2.90;;;57.10;20.70;;;;;;5052876;28;20415;-72
2023/08/23 10:32:07;;;;;;;3.40;3.00;;;56.70;19.20;;;;;;5052544;28;20425;-73
2023/08/23 10:34:35;;;;;;;2.90;2.70;;;57.10;20.40;;;;;;5052313;28;20980;-73
2023/08/23 10:37:11;;;;;;;3.00;2.90;;;57.40;19.20;;;;;;5052154;28;20397;-73
2023/08/23 10:39:37;;;;;;;3.20;3.00;;;57.80;19.90;;;;;;5052496;28;20407;-73
2023/08/23 10:42:04;;;;;;;4.17;2.60;;;58.20;19.30;;;;;;5052364;28;20778;-72
2023/08/23 10:44:30;;;;;;;3.93;3.57;;;58.10;18.90;;;;;;5052421;28;20210;-72
2023/08/23 10:46:58;;;;;;;3.27;3.07;;;58.60;19.90;;;;;;5052145;28;20825;-72
2023/08/23 10:49:25;;;;;;;3.40;3.07;;;59.10;20.00;;;;;;5052148;28;20197;-72
2023/08/23 10:51:52;;;;;;;4.87;3.47;;;58.60;18.40;;;;;;5052181;28;20424;-72
2023/08/23 10:54:18;;;;;;;4.00;3.73;;;58.10;18.30;;;;;;5052088;28;20451;-72
2023/08/23 10:56:44;;;;;;;3.57;3.00;;;57.50;18.30;;;;;;5051919;28;20397;-72
2023/08/23 10:59:09;;;;;;;3.40;2.67;;;56.40;18.50;;;;;;5052129;28;20205;-72
2023/08/23 11:01:38;;;;;;;2.63;2.43;;;55.60;18.90;;;;;;5052048;28;20194;-73
2023/08/23 11:04:05;;;;;;;3.13;2.80;;;55.80;19.70;;;;;;5052035;28;20255;-72
2023/08/23 11:06:31;;;;;;;3.37;2.93;;;56.20;19.30;;;;;;5051791;28;20428;-72
2023/08/23 11:08:58;;;;;;;2.57;2.37;;;56.00;19.00;;;;;;5051968;28;20412;-72
2023/08/23 11:11:28;;;;;;;4.10;2.60;;;55.20;18.60;;;;;;5051881;28;20401;-72
2023/08/23 11:13:54;;;;;;;2.60;2.40;;;54.30;19.00;;;;;;5051793;28;20445;-72
2023/08/23 11:16:20;;;;;;;4.10;3.80;;;54.50;19.70;;;;;;5042309;28;20479;-71
2023/08/23 11:18:45;;;;;;;2.50;2.30;;;54.10;19.20;;;;;;5049771;28;20169;-72
2023/08/23 11:21:11;;;;;;;3.67;2.83;;;53.90;19.40;;;;;;5045491;28;20709;-72
2023/08/23 11:23:37;;;;;;;2.70;2.60;;;53.60;19.70;;;;;;5045876;28;20179;-72
2023/08/23 11:26:03;;;;;;;2.60;2.43;;;54.50;20.60;;;;;;5048432;28;20298;-72
2023/08/23 11:28:30;;;;;;;4.80;2.60;;;55.00;19.70;;;;;;5043314;28;20760;-72
2023/08/23 11:30:58;;;;;;;3.70;3.40;;;55.90;20.40;;;;;;5046223;28;20417;-72
2023/08/23 11:33:23;;;;;;;3.37;3.17;;;56.70;20.20;;;;;;5055542;28;20437;-74
2023/08/23 11:35:49;;;;;;;3.43;3.20;;;57.60;19.90;;;;;;5055524;28;20985;-72
2023/08/23 11:38:14;;;;;;;3.50;3.30;;;58.20;19.90;;;;;;5055905;28;20250;-71
2023/08/23 11:40:40;;;;;;;3.80;3.50;;;58.90;19.40;;;;;;5055848;28;20162;-71
2023/08/23 11:43:07;;;;;;;3.17;3.07;;;59.30;18.60;;;;;;5045139;28;20202;-74
2023/08/23 11:45:39;;;;;;;3.63;3.43;;;59.30;18.60;;;;;;5045346;28;20171;-73
2023/08/23 11:48:05;;;;;;;3.50;3.00;;;59.70;19.10;;;;;;5038969;28;21012;-73
2023/08/23 11:50:31;;;;;;;3.33;3.20;;;60.00;19.00;;;;;;5054129;28;20512;-72
2023/08/23 11:52:57;;;;;;;3.87;3.53;;;59.70;17.60;;;;;;5049047;28;20448;-72
2023/08/23 11:55:23;;;;;;;3.87;3.57;;;59.30;17.50;;;;;;5048242;28;20170;-72
2023/08/23 11:57:55;;;;;;;3.57;3.37;;;58.90;17.80;;;;;;5055347;28;20208;-72
2023/08/23 12:00:23;;;;;;;3.47;3.27;;;58.20;18.50;;;;;;5055042;28;20408;-72
2023/08/23 12:02:48;;;;;;;4.07;3.77;;;58.40;18.90;;;;;;5049133;28;20436;-72
2023/08/23 12:05:16;;;;;;;3.50;3.30;;;58.40;18.70;;;;;;5049358;28;20405;-72
2023/08/23 12:07:41;;;;;;;3.60;3.30;;;58.00;18.00;;;;;;5055153;28;20186;-72
2023/08/23 12:10:11;;;;;;;3.23;3.03;;;58.50;19.10;;;;;;5055367;28;20405;-72
2023/08/23 12:12:37;;;;;;;3.50;3.20;;;58.20;19.20;;;;;;5055172;28;20667;-71
2023/08/23 12:15:04;;;;;;;5.20;3.83;;;57.00;18.50;;;;;;5054692;28;20543;-72
2023/08/23 12:17:29;;;;;;;4.40;3.37;;;56.50;18.20;;;;;;5055042;28;20400;-72
2023/08/23 12:19:55;;;;;;;3.50;3.30;;;55.80;18.30;;;;;;5055025;28;20906;-72
2023/08/23 12:22:21;;;;;;;3.80;3.33;;;55.90;19.10;;;;;;5048463;28;20199;-72
2023/08/23 12:24:46;;;;;;;2.60;2.50;;;55.20;18.60;;;;;;5042762;28;20170;-72
2023/08/23 12:27:12;;;;;;;3.50;3.20;;;55.40;19.40;;;;;;5047296;28;20639;-71
2023/08/23 12:29:38;;;;;;;3.37;2.90;;;55.70;19.10;;;;;;5054798;28;20181;-71
2023/08/23 12:32:05;;;;;;;3.03;2.83;;;55.10;18.40;;;;;;5054766;28;20261;-72
2023/08/23 12:34:31;;;;;;;4.73;3.97;;;54.60;19.00;;;;;;5054675;28;20963;-71
2023/08/23 12:36:57;;;;;;;4.90;2.73;;;54.50;19.50;;;;;;5054493;28;20368;-72
2023/08/23 12:39:22;;;;;;;2.70;2.50;;;54.70;19.60;;;;;;5054673;28;20166;-73
2023/08/23 12:41:48;;;;;;;3.40;3.13;;;55.20;19.40;;;;;;5053269;28;20659;-72
2023/08/23 12:44:14;;;;;;;2.70;2.50;;;54.90;18.80;;;;;;5041845;28;20802;-72